Time;durP1;ratioP1;P1;durP2;ratioP2;P2;SDS_P1;SDS_P2;PMS_P1;PMS_P2;Temp;Humidity;BMP_temperature;BMP_pressure;BME280_temperature;BME280_humidity;BME280_pressure;Samples;Min_cycle;Max_cycle;Signal;HPM_P1;HPM_P2
2022/06/08 00:02:18;;;;;;;0.20;0.20;;;;;;;12.19;85.16;96321.09;5072928;28;20043;-61
2022/06/08 00:04:44;;;;;;;0.65;0.50;;;;;;;12.19;85.18;96323.84;5073706;28;20483;-60
2022/06/08 00:07:10;;;;;;;0.30;0.30;;;;;;;12.19;84.94;96320.25;5074428;28;20047;-61
2022/06/08 00:09:36;;;;;;;0.10;0.10;;;;;;;12.17;85.01;96326.06;5072997;28;20379;-60
2022/06/08 00:12:04;;;;;;;0.40;0.40;;;;;;;12.18;85.17;96311.22;5073379;28;20082;-61
2022/06/08 00:14:29;;;;;;;0.10;0.10;;;;;;;12.17;85.17;96320.56;5072624;28;20577;-61
2022/06/08 00:16:55;;;;;;;0.63;0.63;;;;;;;12.17;84.73;96315.06;5073613;28;20071;-61
2022/06/08 00:19:21;;;;;;;0.68;0.68;;;;;;;12.18;84.82;96308.44;5073496;28;20384;-62
2022/06/08 00:21:47;;;;;;;0.10;0.10;;;;;;;12.17;84.95;96309.56;5072324;28;20048;-62
2022/06/08 00:24:12;;;;;;;0.10;0.10;;;;;;;12.18;84.73;96305.69;5072774;28;20127;-63
2022/06/08 00:26:38;;;;;;;0.30;0.30;;;;;;;12.18;84.74;96313.97;5073140;28;20024;-61
2022/06/08 00:29:05;;;;;;;0.30;0.30;;;;;;;12.20;84.59;96306.19;5071430;28;20029;-62
2022/06/08 00:31:31;;;;;;;0.22;0.22;;;;;;;12.20;84.61;96306.19;5072692;28;20024;-61
2022/06/08 00:33:57;;;;;;;0.45;0.45;;;;;;;12.24;84.37;96309.16;5072383;28;20040;-62
2022/06/08 00:36:23;;;;;;;0.20;0.20;;;;;;;12.25;84.47;96314.38;5073305;28;20044;-61
2022/06/08 00:38:48;;;;;;;0.52;0.52;;;;;;;12.25;84.26;96308.06;5072696;28;20112;-62
2022/06/08 00:41:23;;;;;;;0.20;0.20;;;;;;;12.26;84.02;96307.75;5072502;28;20028;-62
2022/06/08 00:43:48;;;;;;;0.10;0.10;;;;;;;12.24;83.95;96303.66;5072909;28;20029;-62
2022/06/08 00:46:15;;;;;;;0.30;0.20;;;;;;;12.29;83.69;96300.00;5072910;28;20153;-62
2022/06/08 00:48:47;;;;;;;0.90;0.45;;;;;;;12.27;83.73;96306.59;5072458;28;20036;-62
2022/06/08 00:51:13;;;;;;;0.30;0.30;;;;;;;12.26;83.55;96301.41;5072441;28;20066;-65
2022/06/08 00:53:58;;;;;;;0.10;0.10;;;;;;;12.27;83.78;96301.09;5072576;28;20549;-62
2022/06/08 00:56:29;;;;;;;4.57;0.80;;;;;;;12.29;83.45;96308.25;5072163;28;20035;-63
2022/06/08 00:58:58;;;;;;;0.35;0.35;;;;;;;12.29;83.11;96302.75;5072711;28;20036;-61
2022/06/08 01:01:24;;;;;;;0.20;0.20;;;;;;;12.29;83.24;96314.56;5072374;28;20036;-62
2022/06/08 01:03:50;;;;;;;0.20;0.20;;;;;;;12.30;83.26;96309.88;5072232;28;20024;-61
2022/06/08 01:06:21;;;;;;;0.20;0.20;;;;;;;12.29;83.20;96305.50;5071952;28;20036;-59
2022/06/08 01:08:49;;;;;;;0.30;0.30;;;;;;;12.26;83.15;96299.50;5072101;28;20082;-61
2022/06/08 01:11:40;;;;;;;0.10;0.10;;;;;;;12.25;82.68;96305.31;5072301;28;20036;-61
2022/06/08 01:14:11;;;;;;;0.43;0.43;;;;;;;12.26;82.55;96307.75;5071679;28;20151;-62
2022/06/08 01:16:41;;;;;;;0.40;0.40;;;;;;;12.27;82.68;96301.09;5072307;28;20549;-61
2022/06/08 01:19:10;;;;;;;0.20;0.20;;;;;;;12.31;82.31;96301.31;5072206;28;20580;-62
2022/06/08 01:21:35;;;;;;;0.20;0.20;;;;;;;12.34;82.13;96310.91;5072243;28;20047;-62
2022/06/08 01:24:05;;;;;;;0.17;0.17;;;;;;;12.33;82.24;96303.75;5072306;28;20063;-62
2022/06/08 01:27:13;;;;;;;1.02;0.55;;;;;;;12.31;82.08;96312.31;5072003;28;20399;-62
2022/06/08 01:30:07;;;;;;;2.35;0.35;;;;;;;12.31;81.95;96304.06;5066107;28;20048;-60
2022/06/08 01:32:56;;;;;;;0.50;0.50;;;;;;;12.30;82.08;96304.38;5071861;28;20110;-60
2022/06/08 01:35:49;;;;;;;0.28;0.28;;;;;;;12.34;81.82;96299.91;5053653;28;21021;-61
2022/06/08 01:38:41;;;;;;;0.63;0.43;;;;;;;12.39;81.59;96299.78;5076541;28;20028;-59
2022/06/08 01:41:13;;;;;;;0.10;0.10;;;;;;;12.44;81.62;96300.47;5092463;28;20028;-61
2022/06/08 01:44:24;;;;;;;0.22;0.22;;;;;;;12.42;81.49;96299.16;5090937;28;20032;-61
2022/06/08 01:47:10;;;;;;;0.20;0.20;;;;;;;12.40;81.55;96313.22;5074435;28;20104;-61
2022/06/08 01:50:01;;;;;;;0.22;0.22;;;;;;;12.38;81.41;96303.63;5071736;28;20086;-62
2022/06/08 01:52:40;;;;;;;0.30;0.30;;;;;;;12.44;81.38;96302.44;5081587;28;20044;-63
2022/06/08 01:55:33;;;;;;;0.20;0.20;;;;;;;12.46;81.08;96304.88;5091848;28;20039;-63
2022/06/08 01:58:12;;;;;;;0.38;0.38;;;;;;;12.48;81.13;96299.84;5091732;28;20031;-62
2022/06/08 02:00:44;;;;;;;0.25;0.20;;;;;;;12.49;80.69;96296.78;5092103;28;20105;-63
2022/06/08 02:03:39;;;;;;;0.20;0.20;;;;;;;12.55;80.80;96309.31;5091873;28;20087;-63
2022/06/08 02:06:18;;;;;;;0.10;0.10;;;;;;;12.56;80.51;96315.66;5062595;28;20039;-61
2022/06/08 02:09:01;;;;;;;0.20;0.20;;;;;;;12.57;80.53;96300.75;5071566;28;20037;-59
2022/06/08 02:11:46;;;;;;;0.20;0.20;;;;;;;12.61;80.54;96301.75;5071661;28;20067;-61
2022/06/08 02:14:26;;;;;;;0.20;0.20;;;;;;;12.66;80.47;96315.44;5071545;28;20062;-61
2022/06/08 02:16:54;;;;;;;0.10;0.10;;;;;;;12.80;79.88;96307.13;5091124;28;20063;-61
2022/06/08 02:19:26;;;;;;;0.30;0.30;;;;;;;12.90;79.63;96308.84;5091419;28;20056;-61
2022/06/08 02:22:03;;;;;;;0.25;0.25;;;;;;;13.03;79.32;96304.38;5094436;28;20172;-61
2022/06/08 02:24:38;;;;;;;0.25;0.22;;;;;;;13.18;78.84;96304.03;5095279;28;20032;-61
2022/06/08 02:27:23;;;;;;;0.20;0.20;;;;;;;13.42;78.60;96302.91;5095271;28;20036;-61
2022/06/08 02:30:02;;;;;;;0.10;0.10;;;;;;;13.47;78.17;96305.50;5095233;28;20085;-61
2022/06/08 02:36:01;;;;;;;0.20;0.20;;;;;;;13.52;78.10;96299.88;5089178;28;20058;-62
2022/06/08 02:39:06;;;;;;;0.20;0.20;;;;;;;13.49;78.21;96306.03;5080040;28;20052;-61
2022/06/08 02:41:51;;;;;;;;;;;;;;;13.38;78.39;96310.16;5090470;28;20431;-61
2022/06/08 02:44:25;;;;;;;0.60;0.60;;;;;;;13.32;78.39;96309.44;5092726;28;19920;-60
2022/06/08 02:47:06;;;;;;;2.05;0.93;;;;;;;13.34;78.36;96315.50;5091817;28;20266;-60
2022/06/08 02:49:36;;;;;;;1.02;0.50;;;;;;;13.38;78.39;96304.66;5094846;28;20531;-60
2022/06/08 02:52:11;;;;;;;0.40;0.40;;;;;;;13.41;78.45;96313.13;5089170;28;20033;-60
2022/06/08 02:55:16;;;;;;;0.25;0.25;;;;;;;13.51;78.10;96313.97;5090637;28;20100;-62
2022/06/08 02:58:01;;;;;;;;;;;;;;;13.63;77.60;96305.94;5074593;28;20028;-61
2022/06/08 03:01:10;;;;;;;0.13;0.13;;;;;;;13.81;77.33;96312.38;5073764;28;20306;-61
2022/06/08 03:07:39;;;;;;;0.25;0.25;;;;;;;14.27;75.99;96302.00;5071278;28;20521;-61
2022/06/08 03:10:24;;;;;;;;;;;;;;;14.43;75.63;96305.94;5074123;28;20139;-61
2022/06/08 03:13:10;;;;;;;;;;;;;;;14.42;75.63;96301.53;5074572;28;19931;-60
2022/06/08 03:23:04;;;;;;;0.30;0.30;;;;;;;14.42;75.91;96286.94;5051821;28;20091;-60
2022/06/08 03:26:10;;;;;;;0.28;0.28;;;;;;;14.51;75.49;96291.31;5053489;28;20388;-61
2022/06/08 03:29:15;;;;;;;0.32;0.32;;;;;;;14.57;75.48;96289.22;5052748;28;20439;-61
2022/06/08 03:32:01;;;;;;;;;;;;;;;14.61;75.35;96283.88;5069262;28;20044;-60
2022/06/08 03:38:28;;;;;;;0.45;0.45;;;;;;;14.89;74.51;96292.69;5053576;28;20086;-61
2022/06/08 03:41:13;;;;;;;;;;;;;;;14.97;74.46;96294.66;5053969;28;20040;-61
2022/06/08 03:51:04;;;;;;;1.30;0.40;;;;;;;14.98;74.54;96295.47;5050418;28;20509;-62
2022/06/08 04:04:00;;;;;;;0.60;0.25;;;;;;;14.58;75.27;96309.38;5051506;28;20466;-60
2022/06/08 04:07:06;;;;;;;0.20;0.20;;;;;;;14.61;75.08;96311.50;5053223;28;20140;-62
2022/06/08 04:09:51;;;;;;;;;;;;;;;14.59;75.10;96311.81;5053191;28;20052;-62
2022/06/08 04:30:31;;;;;;;0.22;0.22;;;;;;;14.12;75.82;96339.09;5052466;28;20051;-61
2022/06/08 04:33:37;;;;;;;3.35;0.50;;;;;;;14.07;75.64;96342.00;5052423;28;20059;-61
2022/06/08 04:36:22;;;;;;;;;;;;;;;14.09;75.60;96348.00;5052786;28;20400;-62
2022/06/08 04:39:07;;;;;;;;;;;;;;;14.10;75.71;96352.41;5052314;28;19947;-63
2022/06/08 04:45:37;;;;;;;0.40;0.40;;;;;;;14.12;75.38;96350.97;5049605;28;20526;-61
2022/06/08 04:48:42;;;;;;;0.10;0.10;;;;;;;14.12;75.23;96352.88;5050218;28;20036;-60
2022/06/08 04:55:11;;;;;;;0.20;0.20;;;;;;;14.17;75.08;96355.53;5050497;28;20136;-61
2022/06/08 04:57:56;;;;;;;;;;;;;;;14.24;74.85;96361.41;5051989;28;20036;-61
2022/06/08 05:07:49;;;;;;;0.73;0.73;;;;;;;14.47;74.22;96367.66;5050678;28;20083;-63
2022/06/08 05:10:55;;;;;;;0.20;0.20;;;;;;;14.48;74.09;96368.47;5051767;28;20040;-63
2022/06/08 05:20:47;;;;;;;0.10;0.10;;;;;;;14.93;73.45;96354.47;5048660;28;20051;-61
2022/06/08 05:23:53;;;;;;;0.30;0.30;;;;;;;15.09;73.03;96353.97;5067182;28;20132;-63
2022/06/08 05:37:08;;;;;;;0.20;0.20;;;;;;;17.26;68.34;96353.53;5064646;28;20047;-61
2022/06/08 05:40:14;;;;;;;0.50;0.50;;;;;;;19.94;62.17;96351.50;5068773;28;20032;-64
2022/06/08 05:50:05;;;;;;;0.20;0.20;;;;;;;20.82;62.52;96358.94;5064265;28;20047;-62
2022/06/08 05:53:10;;;;;;;0.15;0.15;;;;;;;21.16;62.23;96355.72;5070453;28;20035;-61
2022/06/08 05:56:16;;;;;;;0.38;0.35;;;;;;;21.90;61.11;96345.69;5071568;28;20032;-62
2022/06/08 06:22:40;;;;;;;0.20;0.20;;;;;;;19.41;66.58;96373.84;5045926;28;20079;-63
2022/06/08 06:25:22;;;;;;;0.20;0.20;;;;;;;19.93;65.39;96363.81;5088685;28;20460;-60
2022/06/08 06:27:48;;;;;;;0.32;0.32;;;;;;;20.12;64.16;96365.09;5086189;28;20044;-62
2022/06/08 06:30:15;;;;;;;1.38;0.40;;;;;;;19.86;64.88;96355.28;5089681;28;20093;-63
2022/06/08 06:32:43;;;;;;;0.10;0.10;;;;;;;19.44;65.84;96355.66;5086162;28;20032;-62
2022/06/08 06:35:25;;;;;;;0.20;0.20;;;;;;;19.00;66.58;96373.00;5093437;28;20036;-61
2022/06/08 06:37:52;;;;;;;0.17;0.17;;;;;;;18.43;67.65;96358.06;5093615;28;20123;-62
2022/06/08 06:40:19;;;;;;;0.15;0.15;;;;;;;18.07;68.48;96351.31;5089333;28;20119;-62
2022/06/08 06:42:45;;;;;;;3.03;0.73;;;;;;;17.89;68.64;96353.44;5094869;28;20032;-61
2022/06/08 06:45:12;;;;;;;1.80;0.70;;;;;;;17.72;68.74;96359.16;5094186;28;20051;-62
2022/06/08 06:47:37;;;;;;;0.52;0.52;;;;;;;17.77;68.18;96354.22;5094133;28;20126;-61
2022/06/08 06:50:05;;;;;;;0.40;0.40;;;;;;;17.80;67.92;96369.34;5093367;28;20554;-62
2022/06/08 06:52:32;;;;;;;0.30;0.30;;;;;;;17.82;67.49;96375.41;5093402;28;20054;-61
2022/06/08 06:55:43;;;;;;;2.72;0.47;;;;;;;17.99;66.75;96349.44;5090143;28;20047;-64
2022/06/08 06:58:10;;;;;;;0.25;0.25;;;;;;;18.58;65.18;96372.44;5072580;28;20041;-62
2022/06/08 07:00:40;;;;;;;1.67;1.20;;;;;;;18.93;64.17;96360.88;5054996;28;20044;-62
2022/06/08 07:03:09;;;;;;;0.30;0.30;;;;;;;19.09;63.78;96375.66;5054927;28;20067;-62
2022/06/08 07:05:37;;;;;;;0.30;0.30;;;;;;;19.10;63.46;96365.38;5073113;28;20040;-61
2022/06/08 07:08:04;;;;;;;0.28;0.28;;;;;;;19.32;63.12;96364.03;5054709;28;20039;-62
2022/06/08 07:10:33;;;;;;;0.20;0.20;;;;;;;19.47;62.56;96368.84;5072950;28;20079;-62
2022/06/08 07:13:02;;;;;;;0.22;0.22;;;;;;;19.32;62.99;96362.06;5054765;28;20120;-61
2022/06/08 07:15:30;;;;;;;0.22;0.22;;;;;;;19.26;63.21;96357.91;5054495;28;20037;-63
2022/06/08 07:17:57;;;;;;;0.32;0.30;;;;;;;19.17;63.37;96360.81;5074065;28;20135;-61
2022/06/08 07:20:25;;;;;;;0.30;0.30;;;;;;;19.12;63.54;96361.06;5054677;28;20041;-61
2022/06/08 07:22:54;;;;;;;0.65;0.65;;;;;;;19.06;63.72;96370.81;5054524;28;20126;-62
2022/06/08 07:25:21;;;;;;;0.45;0.45;;;;;;;18.99;63.71;96362.25;5054032;28;20135;-60
2022/06/08 07:27:50;;;;;;;0.80;0.73;;;;;;;18.85;64.00;96355.03;5059614;28;20044;-62
2022/06/08 07:30:20;;;;;;;0.20;0.20;;;;;;;19.04;63.46;96357.25;5091310;28;20105;-62
2022/06/08 07:32:47;;;;;;;2.67;0.52;;;;;;;18.99;63.57;96353.91;5074709;28;20040;-62
2022/06/08 07:35:16;;;;;;;0.10;0.10;;;;;;;18.58;64.30;96364.09;5074750;28;20036;-61
2022/06/08 07:37:46;;;;;;;0.25;0.25;;;;;;;18.19;65.11;96365.22;5074741;28;20044;-61
2022/06/08 07:40:15;;;;;;;1.98;0.40;;;;;;;18.00;65.61;96367.72;5074294;28;20047;-63
2022/06/08 07:42:43;;;;;;;0.45;0.20;;;;;;;17.68;66.07;96367.34;5091460;28;20138;-63
2022/06/08 07:45:11;;;;;;;0.47;0.47;;;;;;;17.45;66.58;96364.16;5073858;28;20055;-61
2022/06/08 07:50:28;;;;;;;0.57;0.57;;;;;;;17.01;67.52;96381.13;5092770;28;20122;-62
2022/06/08 07:52:55;;;;;;;0.77;0.73;;;;;;;16.39;69.04;96430.47;5090927;28;20040;-63
2022/06/08 07:55:23;;;;;;;0.68;0.68;;;;;;;15.62;71.19;96451.56;5074105;28;20044;-71
2022/06/08 07:57:50;;;;;;;0.20;0.20;;;;;;;14.80;72.85;96438.28;5074262;28;20050;-70
2022/06/08 08:00:18;;;;;;;0.15;0.15;;;;;;;14.52;73.64;96436.53;5073911;28;20044;-71
2022/06/08 08:02:45;;;;;;;0.20;0.20;;;;;;;14.53;73.56;96451.13;5074053;28;20494;-70
2022/06/08 08:05:13;;;;;;;0.10;0.10;;;;;;;14.51;73.23;96451.47;5092185;28;20503;-70
2022/06/08 08:07:41;;;;;;;0.10;0.10;;;;;;;14.48;73.21;96457.63;5091070;28;20036;-69
2022/06/08 08:10:12;;;;;;;0.10;0.10;;;;;;;14.50;73.48;96449.84;5074226;28;20139;-69
2022/06/08 08:12:40;;;;;;;0.10;0.10;;;;;;;14.70;73.26;96450.44;5090764;28;20051;-70
2022/06/08 08:15:10;;;;;;;0.10;0.10;;;;;;;14.95;73.02;96448.88;5073401;28;20040;-68
2022/06/08 08:17:38;;;;;;;0.10;0.10;;;;;;;15.27;72.29;96460.66;5073358;28;20048;-67
2022/06/08 08:20:07;;;;;;;0.10;0.10;;;;;;;15.66;71.80;96450.56;5073552;28;20040;-69
2022/06/08 08:22:37;;;;;;;0.10;0.10;;;;;;;16.04;71.29;96454.66;5073757;28;20048;-69
2022/06/08 08:25:05;;;;;;;0.13;0.13;;;;;;;16.15;71.65;96449.56;5073636;28;20471;-69
2022/06/08 08:27:31;;;;;;;0.15;0.15;;;;;;;15.99;72.60;96457.59;5067349;28;20111;-68
2022/06/08 08:29:59;;;;;;;0.10;0.10;;;;;;;15.68;73.49;96458.56;5071706;28;20041;-68
2022/06/08 08:32:28;;;;;;;0.10;0.10;;;;;;;15.30;74.97;96451.72;5053524;28;20036;-68
2022/06/08 08:34:55;;;;;;;0.10;0.10;;;;;;;15.03;75.94;96464.69;5053133;28;20062;-68
2022/06/08 08:37:23;;;;;;;0.10;0.10;;;;;;;14.84;76.87;96469.66;5053503;28;20043;-66
2022/06/08 08:39:52;;;;;;;0.10;0.10;;;;;;;14.64;77.63;96466.34;5052888;28;20127;-66
2022/06/08 08:42:21;;;;;;;0.10;0.10;;;;;;;14.53;77.92;96476.00;5053336;28;20044;-66
2022/06/08 08:44:55;;;;;;;0.10;0.10;;;;;;;14.51;78.15;96478.28;5070673;28;20117;-66
2022/06/08 08:47:42;;;;;;;0.20;0.20;;;;;;;14.51;78.17;96469.97;5052725;28;20568;-66
2022/06/08 08:50:48;;;;;;;0.10;0.10;;;;;;;14.48;78.43;96482.47;5071304;28;20070;-66
2022/06/08 08:53:52;;;;;;;0.10;0.10;;;;;;;14.63;78.45;96477.69;5070772;28;20095;-65
2022/06/08 08:56:30;;;;;;;0.13;0.13;;;;;;;14.86;78.18;96489.50;5062645;28;20048;-68
2022/06/08 08:58:57;;;;;;;0.15;0.15;;;;;;;14.93;78.15;96481.56;5069610;28;20044;-66
2022/06/08 09:01:31;;;;;;;0.10;0.10;;;;;;;14.88;78.73;96488.03;5070977;28;20068;-65
2022/06/08 09:04:05;;;;;;;0.10;0.10;;;;;;;14.86;79.01;96486.72;5053102;28;20402;-66
2022/06/08 09:06:33;;;;;;;0.20;0.20;;;;;;;15.26;78.62;96492.19;5069694;28;20040;-66
2022/06/08 09:09:06;;;;;;;0.10;0.10;;;;;;;15.79;77.67;96486.75;5069865;28;20044;-65
2022/06/08 09:11:39;;;;;;;0.10;0.10;;;;;;;16.28;77.12;96490.09;5052908;28;20530;-66
2022/06/08 09:14:24;;;;;;;0.10;0.10;;;;;;;16.35;77.27;96495.16;5052343;28;20414;-64
2022/06/08 09:16:51;;;;;;;;;;;;;;;16.16;78.27;96499.06;5070343;28;20543;-66
2022/06/08 09:19:35;;;;;;;0.10;0.10;;;;;;;16.01;79.01;96500.41;5053232;28;20065;-65
2022/06/08 09:22:03;;;;;;;0.10;0.10;;;;;;;15.77;79.92;96501.69;5071190;28;20514;-65
2022/06/08 09:24:42;;;;;;;0.10;0.10;;;;;;;15.64;80.37;96510.16;5052739;28;20306;-65
2022/06/08 09:27:27;;;;;;;0.10;0.10;;;;;;;15.56;81.26;96509.00;5077257;28;20036;-65
2022/06/08 09:29:58;;;;;;;0.10;0.10;;;;;;;15.46;81.80;96521.19;5055196;28;20028;-62
2022/06/08 09:32:40;;;;;;;0.10;0.10;;;;;;;15.46;82.06;96523.13;5056497;28;20067;-63
2022/06/08 09:35:22;;;;;;;0.10;0.10;;;;;;;15.66;81.75;96528.03;5055988;28;20045;-63
2022/06/08 09:37:53;;;;;;;0.10;0.10;;;;;;;16.09;80.98;96518.13;5074951;28;20072;-63
2022/06/08 09:40:38;;;;;;;0.10;0.10;;;;;;;16.33;80.53;96520.41;5056874;28;20479;-64
2022/06/08 09:43:23;;;;;;;0.10;0.10;;;;;;;16.51;80.64;96512.06;5074604;28;20044;-63
2022/06/08 09:45:57;;;;;;;0.10;0.10;;;;;;;16.64;80.65;96513.81;5056966;28;20094;-62
2022/06/08 09:51:48;;;;;;;0.10;0.10;;;;;;;16.72;81.24;96512.94;5074725;28;20042;-63
2022/06/08 09:55:11;;;;;;;0.10;0.10;;;;;;;16.76;81.54;96518.66;5056432;28;20043;-63
2022/06/08 09:57:40;;;;;;;0.10;0.10;;;;;;;16.90;81.76;96526.78;5012613;28;20520;-63
2022/06/08 10:00:17;;;;;;;0.10;0.10;;;;;;;16.96;81.88;96520.72;4995892;28;20034;-63
2022/06/08 10:03:10;;;;;;;0.10;0.10;;;;;;;17.09;81.85;96516.13;5030207;28;20524;-65
2022/06/08 10:05:56;;;;;;;0.43;0.30;;;;;;;17.25;82.05;96523.84;5056158;28;20028;-63
2022/06/08 10:08:25;;;;;;;0.20;0.20;;;;;;;17.49;81.93;96526.81;5056454;28;20506;-63
2022/06/08 10:11:00;;;;;;;0.20;0.20;;;;;;;17.72;82.11;96531.22;5073446;28;20550;-61
2022/06/08 10:13:35;;;;;;;0.20;0.20;;;;;;;17.73;82.64;96533.66;5054013;28;20059;-63
2022/06/08 10:16:23;;;;;;;0.88;0.38;;;;;;;17.52;83.33;96539.22;5055952;28;20041;-64
2022/06/08 10:18:55;;;;;;;0.10;0.10;;;;;;;17.34;84.28;96536.53;5074313;28;20090;-63
2022/06/08 10:21:34;;;;;;;0.10;0.10;;;;;;;17.24;84.52;96549.94;5055590;28;20040;-64
2022/06/08 10:24:28;;;;;;;0.40;0.40;;;;;;;17.12;84.82;96543.16;5055816;28;20060;-63
2022/06/08 10:27:11;;;;;;;0.20;0.20;;;;;;;17.14;84.83;96549.19;5046919;28;20076;-65
2022/06/08 10:29:47;;;;;;;0.30;0.30;;;;;;;17.28;84.66;96540.63;5094213;28;20062;-63
2022/06/08 10:32:21;;;;;;;0.38;0.38;;;;;;;17.52;84.54;96548.34;5076163;28;20126;-63
2022/06/08 10:34:54;;;;;;;0.20;0.20;;;;;;;17.72;83.84;96559.00;5093901;28;20048;-65
2022/06/08 10:37:30;;;;;;;0.15;0.15;;;;;;;17.70;83.81;96537.13;5076862;28;20067;-62
2022/06/08 10:40:00;;;;;;;0.10;0.10;;;;;;;17.91;83.70;96544.69;5093759;28;20036;-64
2022/06/08 10:42:40;;;;;;;0.13;0.13;;;;;;;18.24;83.48;96536.41;5075748;28;20048;-61
2022/06/08 10:45:24;;;;;;;1.30;0.45;;;;;;;18.58;82.96;96541.94;5076170;28;20052;-65
2022/06/08 10:47:58;;;;;;;0.20;0.20;;;;;;;18.76;83.01;96542.56;5076684;28;20043;-64
2022/06/08 10:50:46;;;;;;;0.25;0.25;;;;;;;18.85;83.13;96541.31;5076501;28;20036;-63
2022/06/08 10:56:26;;;;;;;0.15;0.15;;;;;;;18.98;83.74;96542.19;5094759;28;20097;-63
2022/06/08 10:59:03;;;;;;;0.20;0.20;;;;;;;19.03;83.94;96539.16;5076758;28;20040;-62
2022/06/08 11:01:51;;;;;;;0.32;0.15;;;;;;;19.00;84.16;96544.63;5076573;28;20060;-63
2022/06/08 11:07:00;;;;;;;0.20;0.20;;;;;;;18.78;84.97;96559.72;5094937;28;20059;-65
2022/06/08 11:09:35;;;;;;;0.20;0.20;;;;;;;18.85;85.17;96563.56;5076444;28;20040;-64
2022/06/08 11:12:56;;;;;;;0.30;0.30;;;;;;;18.87;85.36;96568.81;5066268;28;20098;-64
2022/06/08 11:15:52;;;;;;;0.10;0.10;;;;;;;18.76;85.53;96573.16;5073577;28;20600;-63
2022/06/08 11:18:31;;;;;;;0.25;0.22;;;;;;;18.69;85.73;96584.84;5083346;28;20129;-65
2022/06/08 11:27:26;;;;;;;0.20;0.20;;;;;;;18.59;86.32;96599.97;5091917;28;20048;-62
2022/06/08 11:29:59;;;;;;;0.63;0.32;;;;;;;18.74;86.21;96591.00;5077898;28;20503;-63
2022/06/08 11:32:34;;;;;;;0.10;0.10;;;;;;;18.95;85.66;96592.09;5079512;28;20037;-65
2022/06/08 11:35:13;;;;;;;0.25;0.25;;;;;;;19.19;85.50;96594.94;5075570;28;20418;-62
2022/06/08 11:38:16;;;;;;;0.40;0.30;;;;;;;19.47;85.25;96596.25;5094010;28;20039;-65
2022/06/08 11:40:42;;;;;;;1.30;0.50;;;;;;;19.56;85.00;96603.31;5094147;28;20134;-63
2022/06/08 11:43:10;;;;;;;0.20;0.20;;;;;;;19.73;84.80;96604.25;5085944;28;20037;-63
2022/06/08 11:45:42;;;;;;;0.15;0.15;;;;;;;20.07;84.14;96597.38;5073587;28;20058;-62
2022/06/08 11:48:17;;;;;;;0.30;0.30;;;;;;;20.34;83.86;96602.53;5073546;28;20047;-63
2022/06/08 11:50:47;;;;;;;0.22;0.22;;;;;;;20.46;83.39;96588.56;5073256;28;20498;-63
2022/06/08 11:53:24;;;;;;;0.20;0.20;;;;;;;20.37;83.37;96593.47;5072629;28;20446;-64
2022/06/08 11:56:22;;;;;;;0.30;0.30;;;;;;;20.04;83.39;96598.09;5073168;28;20098;-62
2022/06/08 11:58:49;;;;;;;0.10;0.10;;;;;;;;;;5061359;28;20040;-62
2022/06/08 12:01:22;;;;;;;0.20;0.20;;;;;;;18.83;84.26;96620.66;5073533;28;20094;-61
2022/06/08 12:03:56;;;;;;;0.10;0.10;;;;;;;18.19;84.37;96645.72;5073244;28;20148;-62
2022/06/08 12:06:31;;;;;;;0.52;0.52;;;;;;;17.31;82.83;96655.63;5073024;28;20040;-64
2022/06/08 12:09:20;;;;;;;0.10;0.10;;;;;;;16.17;83.71;96649.41;5073099;28;20037;-63
2022/06/08 12:12:01;;;;;;;0.10;0.10;;;;;;;15.34;84.99;96660.06;5055054;28;20473;-64
2022/06/08 12:14:36;;;;;;;0.10;0.10;;;;;;;14.80;86.32;96657.34;5072570;28;20388;-63
2022/06/08 12:17:08;;;;;;;0.17;0.17;;;;;;;14.49;87.20;96655.31;5056022;28;20415;-63
2022/06/08 12:19:42;;;;;;;0.10;0.10;;;;;;;14.49;88.45;96662.78;5072748;28;20503;-63
2022/06/08 12:22:19;;;;;;;0.10;0.10;;;;;;;14.51;88.61;96663.28;5054976;28;20052;-64
2022/06/08 12:25:17;;;;;;;0.20;0.20;;;;;;;14.43;88.47;96661.25;5072614;28;20048;-66
2022/06/08 12:27:55;;;;;;;0.20;0.20;;;;;;;14.42;88.96;96668.72;5072639;28;20086;-65
2022/06/08 12:30:29;;;;;;;0.22;0.22;;;;;;;14.44;89.28;96672.00;5073092;28;20044;-65
2022/06/08 12:33:01;;;;;;;0.38;0.38;;;;;;;14.52;89.12;96667.69;5071381;28;20110;-64
2022/06/08 12:35:39;;;;;;;0.20;0.20;;;;;;;14.56;89.21;96665.94;5070938;28;20036;-64
2022/06/08 12:38:28;;;;;;;0.20;0.20;;;;;;;14.65;89.16;96653.03;5072571;28;20042;-64
2022/06/08 12:41:03;;;;;;;0.10;0.10;;;;;;;14.62;88.88;96664.69;5072441;28;20044;-65
2022/06/08 12:43:36;;;;;;;0.20;0.20;;;;;;;14.57;89.03;96663.97;5072440;28;20105;-63
2022/06/08 12:46:20;;;;;;;0.20;0.20;;;;;;;14.46;89.27;96663.41;5072283;28;20484;-67
2022/06/08 12:49:01;;;;;;;0.30;0.30;;;;;;;14.43;89.18;96667.59;5054544;28;20094;-66
2022/06/08 12:51:30;;;;;;;0.30;0.30;;;;;;;14.47;89.14;96665.84;5052470;28;20043;-63
2022/06/08 12:54:09;;;;;;;0.13;0.13;;;;;;;14.60;89.09;96663.34;5071912;28;20032;-64
2022/06/08 12:56:35;;;;;;;0.10;0.10;;;;;;;14.78;89.20;96672.59;5072345;28;20059;-63
2022/06/08 12:59:00;;;;;;;0.10;0.10;;;;;;;14.99;89.31;96679.25;5053972;28;20499;-64
2022/06/08 13:01:28;;;;;;;0.30;0.30;;;;;;;15.15;88.99;96673.28;5072151;28;20070;-63
2022/06/08 13:03:54;;;;;;;0.10;0.10;;;;;;;15.20;89.00;96659.34;5072167;28;20033;-66
2022/06/08 13:06:20;;;;;;;0.85;0.22;;;;;;;15.27;88.83;96670.78;5071818;28;20083;-62
2022/06/08 13:08:48;;;;;;;0.47;0.28;;;;;;;15.42;88.79;96670.34;5072340;28;20409;-63
2022/06/08 13:11:23;;;;;;;0.35;0.35;;;;;;;15.40;88.42;96658.00;5071743;28;20036;-64
2022/06/08 13:13:49;;;;;;;;;;;;;;;15.24;88.30;96652.88;5071776;28;20173;-64
2022/06/08 13:16:23;;;;;;;0.20;0.20;;;;;;;15.08;88.47;96671.00;5070596;28;19928;-62
2022/06/08 13:18:51;;;;;;;0.20;0.20;;;;;;;14.75;88.32;96660.22;5070612;28;20051;-68
2022/06/08 13:21:17;;;;;;;0.20;0.20;;;;;;;14.61;88.14;96673.25;5052318;28;20049;-67
2022/06/08 13:23:43;;;;;;;0.25;0.25;;;;;;;14.53;88.62;96675.66;5106108;28;20152;-65
2022/06/08 13:26:28;;;;;;;4.03;0.45;;;;;;;14.41;88.58;96656.03;5110881;28;20043;-66
2022/06/08 13:28:56;;;;;;;0.40;0.40;;;;;;;14.38;88.59;96656.66;5110816;28;20069;-62
2022/06/08 13:31:23;;;;;;;0.43;0.43;;;;;;;14.44;88.89;96655.44;5110387;28;20424;-65
2022/06/08 13:33:56;;;;;;;0.57;0.57;;;;;;;14.58;89.26;96655.38;5112468;28;20054;-64
2022/06/08 13:36:40;;;;;;;0.10;0.10;;;;;;;14.62;88.91;96653.66;5112135;28;20046;-64
2022/06/08 13:39:09;;;;;;;0.20;0.20;;;;;;;14.68;89.04;96655.16;5112138;28;20044;-67
2022/06/08 13:41:38;;;;;;;0.20;0.20;;;;;;;14.77;88.77;96662.69;5110677;28;20355;-67
2022/06/08 13:44:26;;;;;;;0.20;0.20;;;;;;;14.88;88.83;96666.81;5111526;28;20042;-66
2022/06/08 13:47:04;;;;;;;0.22;0.22;;;;;;;14.96;88.92;96662.44;5110739;28;20413;-67
2022/06/08 13:49:34;;;;;;;0.38;0.38;;;;;;;14.99;88.64;96670.94;5112400;28;20409;-67
2022/06/08 13:52:00;;;;;;;0.20;0.20;;;;;;;15.04;88.64;96668.03;5110070;28;20413;-66
2022/06/08 13:54:38;;;;;;;0.20;0.20;;;;;;;15.01;88.42;96679.72;5109767;28;20054;-66
2022/06/08 13:57:08;;;;;;;0.10;0.10;;;;;;;14.96;88.29;96690.94;5108935;28;20028;-69
2022/06/08 13:59:36;;;;;;;0.10;0.10;;;;;;;15.02;88.64;96678.59;5110582;28;20035;-69
2022/06/08 14:02:13;;;;;;;0.20;0.20;;;;;;;15.01;88.25;96687.22;5109615;28;20047;-67
2022/06/08 14:04:41;;;;;;;0.10;0.10;;;;;;;14.96;88.15;96682.63;5109614;28;20417;-70
2022/06/08 14:13:03;;;;;;;0.10;0.10;;;;;;;14.95;87.96;96694.81;5046156;28;20049;-70
2022/06/08 14:15:30;;;;;;;0.30;0.30;;;;;;;14.91;87.94;96693.81;5045095;28;20059;-65
2022/06/08 14:17:56;;;;;;;0.17;0.17;;;;;;;14.95;88.14;96683.75;5080084;28;20119;-68
2022/06/08 14:20:35;;;;;;;0.17;0.17;;;;;;;15.13;87.95;96689.38;5113712;28;20482;-67
2022/06/08 14:23:06;;;;;;;0.20;0.20;;;;;;;15.22;87.91;96690.25;5113298;28;20140;-65
2022/06/08 14:25:33;;;;;;;0.15;0.15;;;;;;;15.42;88.02;96692.47;5113779;28;20059;-70
2022/06/08 14:27:58;;;;;;;0.10;0.10;;;;;;;15.62;87.86;96701.34;5114795;28;20448;-66
2022/06/08 14:30:24;;;;;;;0.10;0.10;;;;;;;15.79;87.66;96705.34;5113950;28;20122;-67
2022/06/08 14:32:57;;;;;;;0.30;0.30;;;;;;;15.93;87.50;96708.81;5115145;28;20042;-68
2022/06/08 14:35:34;;;;;;;0.20;0.20;;;;;;;16.10;87.36;96694.97;5070539;28;20058;-66
2022/06/08 14:38:01;;;;;;;0.10;0.10;;;;;;;16.17;87.08;96707.56;5093399;28;20132;-65
2022/06/08 14:40:34;;;;;;;0.10;0.10;;;;;;;16.27;87.34;96704.47;5091748;28;20036;-64
2022/06/08 14:43:00;;;;;;;0.20;0.20;;;;;;;16.36;87.46;96721.91;5094634;28;20048;-69